This is the latest recevied weather packets stored in our database for station/object WC4PEM-11. If no packets are shown the sender has not sent any weather packets the latest 10 day(s).
| Time | Temp. | Humidity | Pressure | Rain* | Wind** | Luminosity | Snow |
|---|---|---|---|---|---|---|---|
| 1777294405 | 22.22° C | 95% | 1015.7 hPa | 0 mm | - | - | - |
| 1777294105 | 21.67° C | 96% | 1015.7 hPa | 0 mm | - | - | - |
| 1777294071 | 21.67° C | 98% | 1015.6 hPa | 0 mm | - | - | - |
| 1777293805 | 21.67° C | 98% | 1015.6 hPa | 0 mm | - | - | - |
| 1777293505 | 21.67° C | 98% | 1015.5 hPa | 0 mm | - | - | - |
| 1777293466 | 21.11° C | 98% | 1015.5 hPa | 0 mm | - | - | - |
| 1777293205 | 21.11° C | 98% | 1015.5 hPa | 0 mm | - | - | - |
| 1777293087 | 19.44° C | 98% | 1015.1 hPa | 0 mm | - | - | - |
| 1777292905 | 21.11° C | 98% | 1015.4 hPa | 0 mm | - | - | - |
| 1777292605 | 21.11° C | 98% | 1015.4 hPa | 0 mm | - | - | - |
| 1777292305 | 20.56° C | 98% | 1015.3 hPa | 0 mm | - | - | - |
| 1777292005 | 20.56° C | 98% | 1015.3 hPa | 0 mm | - | - | - |
| 1777291705 | 20° C | 98% | 1015.2 hPa | 0 mm | - | - | - |
| 1777291566 | 20° C | 98% | 1015.2 hPa | 0 mm | - | - | - |
| 1777291405 | 20° C | 98% | 1015.2 hPa | 0 mm | - | - | - |
| 1777291114 | 19.44° C | 98% | 1015.1 hPa | 0 mm | - | - | - |
| 1777291105 | 20° C | 98% | 1015.1 hPa | 0 mm | - | - | - |
| 1777290805 | 19.44° C | 98% | 1015.1 hPa | 0 mm | - | - | - |
| 1777290590 | 19.44° C | 98% | 1014.9 hPa | 0 mm | - | - | - |
| 1777290505 | 19.44° C | 98% | 1014.9 hPa | 0 mm | - | - | - |
| 1777290205 | 19.44° C | 98% | 1014.9 hPa | 0 mm | - | - | - |
| 1777289905 | 18.89° C | 97% | 1014.9 hPa | 0 mm | - | - | - |
| 1777289605 | 18.89° C | 97% | 1014.8 hPa | 0 mm | - | - | - |
| 1777289305 | 18.89° C | 98% | 1014.7 hPa | 0 mm | - | - | - |
| 1777289005 | 18.89° C | 98% | 1014.5 hPa | 0 mm | - | - | - |
* Rain latest hour (hover to see other rain measurements)
** Current wind speed in m/s (hover to see current wind gust speed)